Time;durP1;ratioP1;P1;durP2;ratioP2;P2;SDS_P1;SDS_P2;PMS_P1;PMS_P2;Temp;Humidity;BMP_temperature;BMP_pressure;BME280_temperature;BME280_humidity;BME280_pressure;Samples;Min_cycle;Max_cycle;Signal;HPM_P1;HPM_P2
2023/03/27 00:01:56;;;;;;;1.13;0.90;;;8.10;99.90;;;;;;5003984;28;20567;-70
2023/03/27 00:04:21;;;;;;;1.67;0.97;;;8.20;99.90;;;;;;5003333;28;20196;-70
2023/03/27 00:06:47;;;;;;;1.47;1.17;;;8.20;99.90;;;;;;5021384;28;20907;-71
2023/03/27 00:09:15;;;;;;;1.27;1.07;;;8.10;99.90;;;;;;5019418;28;20187;-70
2023/03/27 00:11:41;;;;;;;1.93;1.13;;;8.00;99.90;;;;;;5035429;22;20587;-69
2023/03/27 00:14:07;;;;;;;1.73;1.27;;;8.00;99.90;;;;;;5022043;28;20945;-70
2023/03/27 00:16:32;;;;;;;1.60;1.13;;;8.00;99.90;;;;;;5023881;28;20185;-69
2023/03/27 00:18:59;;;;;;;1.10;1.00;;;7.90;99.90;;;;;;5023409;28;20178;-69
2023/03/27 00:21:25;;;;;;;1.10;1.00;;;8.00;99.90;;;;;;5023633;28;20247;-69
2023/03/27 00:23:51;;;;;;;1.40;1.30;;;8.00;99.90;;;;;;5022820;28;20912;-68
2023/03/27 00:26:16;;;;;;;1.43;1.20;;;8.00;99.90;;;;;;5023495;28;20421;-68
2023/03/27 00:28:42;;;;;;;1.53;1.43;;;8.00;99.90;;;;;;5023385;28;20407;-69
2023/03/27 00:31:10;;;;;;;1.30;0.80;;;8.00;99.90;;;;;;5023265;28;20661;-67
2023/03/27 00:33:36;;;;;;;1.87;1.10;;;8.00;99.90;;;;;;5023692;28;20406;-69
2023/03/27 00:36:02;;;;;;;1.40;1.30;;;8.10;99.90;;;;;;5023547;28;20412;-70
2023/03/27 00:38:28;;;;;;;1.53;1.43;;;8.00;99.90;;;;;;5023274;28;20178;-69
2023/03/27 00:40:54;;;;;;;1.63;1.53;;;8.00;99.90;;;;;;5021847;28;20209;-71
2023/03/27 00:43:34;;;;;;;1.70;1.43;;;8.00;99.90;;;;;;5027047;28;20448;-68
2023/03/27 00:46:15;;;;;;;1.73;1.60;;;7.90;99.90;;;;;;5026322;28;20399;-67
2023/03/27 00:48:46;;;;;;;2.10;1.57;;;8.00;99.90;;;;;;5026399;28;20793;-67
2023/03/27 00:51:11;;;;;;;2.53;2.33;;;7.90;99.90;;;;;;5026961;28;20451;-69
2023/03/27 00:53:38;;;;;;;1.80;1.70;;;7.90;99.90;;;;;;5026128;28;20447;-69
2023/03/27 00:56:06;;;;;;;1.67;1.57;;;7.90;99.90;;;;;;5027710;28;20495;-69
2023/03/27 00:58:51;;;;;;;1.47;1.37;;;7.90;99.90;;;;;;5027720;28;20436;-67
2023/03/27 01:01:18;;;;;;;1.70;1.53;;;7.80;99.90;;;;;;5027363;28;20441;-68
2023/03/27 01:03:46;;;;;;;1.50;1.40;;;7.70;99.90;;;;;;5026918;28;20415;-68
2023/03/27 01:06:15;;;;;;;1.50;1.40;;;7.80;99.90;;;;;;5026937;28;20416;-68
2023/03/27 01:08:43;;;;;;;1.60;1.47;;;7.90;99.90;;;;;;5026573;28;20433;-69
2023/03/27 01:11:34;;;;;;;1.40;1.30;;;8.00;99.90;;;;;;5024802;28;21341;-67
2023/03/27 01:14:44;;;;;;;1.80;1.70;;;7.90;99.90;;;;;;5026465;28;20439;-69
2023/03/27 01:17:22;;;;;;;1.30;1.20;;;7.80;99.90;;;;;;5024878;28;20427;-69
2023/03/27 01:19:57;;;;;;;2.20;1.70;;;7.70;99.90;;;;;;5026689;28;20531;-70
2023/03/27 01:22:44;;;;;;;1.30;1.20;;;7.50;99.90;;;;;;5027588;28;20800;-69
2023/03/27 01:25:26;;;;;;;2.30;1.83;;;7.30;99.90;;;;;;5028711;28;20402;-69
2023/03/27 01:28:10;;;;;;;1.10;0.93;;;7.20;99.90;;;;;;5028811;28;20908;-69
2023/03/27 01:30:47;;;;;;;1.63;0.70;;;7.20;99.90;;;;;;5026598;28;20433;-70
2023/03/27 01:33:16;;;;;;;1.20;1.10;;;7.30;99.90;;;;;;5026024;28;20455;-69
2023/03/27 01:36:03;;;;;;;1.00;0.90;;;7.20;99.90;;;;;;5026010;28;20461;-68
2023/03/27 01:38:37;;;;;;;1.07;0.97;;;7.20;99.90;;;;;;5026060;28;20405;-69
2023/03/27 01:41:28;;;;;;;1.83;1.50;;;7.10;99.90;;;;;;5024627;28;20962;-70
2023/03/27 01:44:27;;;;;;;3.53;1.57;;;7.10;99.90;;;;;;5026083;28;20409;-70
2023/03/27 01:47:03;;;;;;;1.43;1.33;;;7.10;99.90;;;;;;5026123;28;20411;-70
2023/03/27 01:49:38;;;;;;;1.33;1.17;;;7.20;99.90;;;;;;5025881;28;20930;-69
2023/03/27 01:52:11;;;;;;;1.90;1.80;;;7.20;99.90;;;;;;5025906;28;20479;-70
2023/03/27 01:54:42;;;;;;;1.90;1.77;;;7.20;99.90;;;;;;5024608;28;21145;-68
2023/03/27 01:57:21;;;;;;;1.80;1.67;;;7.20;99.90;;;;;;5024157;28;20418;-69
2023/03/27 01:59:52;;;;;;;2.00;1.90;;;7.20;99.90;;;;;;5023525;28;20963;-67
2023/03/27 02:02:29;;;;;;;1.40;1.30;;;7.20;99.90;;;;;;5024182;28;20511;-68
2023/03/27 02:05:07;;;;;;;1.87;1.70;;;7.20;99.90;;;;;;5025463;28;20413;-66
2023/03/27 02:07:41;;;;;;;1.90;1.70;;;7.10;99.90;;;;;;5025786;28;20863;-68
2023/03/27 02:10:16;;;;;;;3.63;1.53;;;7.10;99.90;;;;;;5024126;28;20683;-70
2023/03/27 02:12:56;;;;;;;1.73;1.50;;;7.00;99.90;;;;;;5025522;28;20450;-68
2023/03/27 02:15:28;;;;;;;2.00;1.80;;;7.00;99.90;;;;;;5025004;28;20423;-69
2023/03/27 02:18:03;;;;;;;3.73;3.03;;;6.90;99.90;;;;;;5025461;28;20401;-67
2023/03/27 02:20:31;;;;;;;7.50;3.90;;;6.80;99.90;;;;;;5023976;28;20442;-68
2023/03/27 02:22:59;;;;;;;4.63;4.23;;;6.70;99.90;;;;;;5025211;28;20411;-69
2023/03/27 02:25:39;;;;;;;12.10;6.67;;;6.50;99.90;;;;;;5024865;28;20460;-70
2023/03/27 02:28:23;;;;;;;6.00;4.60;;;6.50;99.90;;;;;;5024977;28;20405;-69
2023/03/27 02:31:24;;;;;;;9.23;4.90;;;6.50;99.90;;;;;;5025047;28;20661;-67
2023/03/27 02:34:20;;;;;;;9.67;6.20;;;6.30;99.90;;;;;;5024969;28;20393;-66
2023/03/27 02:37:16;;;;;;;14.87;7.77;;;6.20;99.90;;;;;;5025076;28;20822;-68
2023/03/27 02:40:09;;;;;;;10.20;5.97;;;6.20;99.90;;;;;;5025110;28;20427;-70
2023/03/27 02:42:56;;;;;;;11.63;6.70;;;6.20;99.90;;;;;;5024802;28;20402;-68
2023/03/27 02:45:39;;;;;;;13.50;7.00;;;6.10;99.90;;;;;;5025183;28;20410;-68
2023/03/27 02:48:30;;;;;;;9.80;6.43;;;6.10;99.90;;;;;;5040311;28;20576;-68
2023/03/27 02:51:07;;;;;;;13.20;6.70;;;5.90;99.90;;;;;;5024474;28;20827;-70
2023/03/27 02:54:14;;;;;;;14.07;8.60;;;6.00;99.90;;;;;;5024979;28;20413;-70
2023/03/27 02:56:46;;;;;;;13.40;6.50;;;5.90;99.90;;;;;;5024040;28;20778;-69
2023/03/27 02:59:21;;;;;;;12.83;7.00;;;5.70;99.90;;;;;;5024733;28;20769;-69
2023/03/27 03:01:48;;;;;;;13.00;7.10;;;5.80;99.90;;;;;;5024794;28;20864;-68
2023/03/27 03:04:25;;;;;;;11.40;7.80;;;5.80;99.90;;;;;;5025132;28;20441;-69
2023/03/27 03:06:53;;;;;;;11.50;7.67;;;5.80;99.90;;;;;;5024410;28;20416;-69
2023/03/27 03:09:18;;;;;;;15.87;8.10;;;5.70;99.90;;;;;;5022957;28;20889;-68
2023/03/27 03:11:51;;;;;;;23.50;8.43;;;5.70;99.90;;;;;;5024005;28;20461;-69
2023/03/27 03:14:19;;;;;;;13.23;8.03;;;5.80;99.90;;;;;;5024161;28;20175;-69
2023/03/27 03:16:45;;;;;;;11.20;6.50;;;5.80;99.90;;;;;;5024394;28;20422;-70
2023/03/27 03:19:11;;;;;;;8.87;6.70;;;5.80;99.90;;;;;;5024319;28;20983;-70
2023/03/27 03:21:38;;;;;;;14.20;7.50;;;5.70;99.90;;;;;;5024121;28;20206;-68
2023/03/27 03:24:04;;;;;;;11.67;6.80;;;5.60;99.90;;;;;;5024207;28;20406;-69
2023/03/27 03:26:31;;;;;;;15.90;7.87;;;5.50;99.90;;;;;;5023730;28;20826;-68
2023/03/27 03:28:57;;;;;;;12.50;6.63;;;5.50;99.90;;;;;;5023963;28;20420;-69
2023/03/27 03:31:22;;;;;;;11.10;6.90;;;5.40;99.90;;;;;;5024208;28;21201;-69
2023/03/27 03:33:48;;;;;;;12.73;7.73;;;5.40;99.90;;;;;;5024243;28;20418;-67
2023/03/27 03:36:14;;;;;;;17.30;7.33;;;5.30;99.90;;;;;;5024270;28;20734;-68
2023/03/27 03:38:40;;;;;;;15.27;9.03;;;5.30;99.90;;;;;;5022737;28;20195;-68
2023/03/27 03:41:06;;;;;;;14.70;7.33;;;5.40;99.90;;;;;;5023722;28;20574;-68
2023/03/27 03:43:32;;;;;;;13.20;6.50;;;5.50;99.90;;;;;;5023568;28;20409;-67
2023/03/27 03:45:58;;;;;;;14.50;6.67;;;5.40;99.90;;;;;;5022733;28;20180;-69
2023/03/27 03:48:25;;;;;;;14.27;7.07;;;5.50;99.90;;;;;;5022862;28;20921;-68
2023/03/27 03:50:50;;;;;;;13.53;7.03;;;5.50;99.90;;;;;;5022179;28;21067;-68
2023/03/27 03:53:19;;;;;;;10.87;6.27;;;5.50;99.90;;;;;;5022905;28;20997;-68
2023/03/27 03:55:45;;;;;;;9.30;6.00;;;5.50;99.90;;;;;;5023779;28;20408;-69
2023/03/27 03:58:11;;;;;;;13.93;7.33;;;5.60;99.90;;;;;;5024117;28;20790;-67
2023/03/27 04:00:38;;;;;;;15.17;6.77;;;5.60;99.90;;;;;;5023886;28;21043;-68
2023/03/27 04:03:08;;;;;;;12.40;6.20;;;5.50;99.90;;;;;;5023526;28;20420;-69
2023/03/27 04:05:36;;;;;;;12.63;6.63;;;5.40;99.90;;;;;;5023926;28;20447;-69
2023/03/27 04:08:05;;;;;;;12.03;5.83;;;5.40;99.90;;;;;;5022438;28;20414;-69
2023/03/27 04:10:30;;;;;;;10.17;5.17;;;5.20;99.90;;;;;;5022621;28;20515;-70
2023/03/27 04:12:57;;;;;;;10.70;5.37;;;5.10;99.90;;;;;;5023409;28;20418;-68
2023/03/27 04:15:22;;;;;;;10.90;5.07;;;5.10;99.90;;;;;;5023492;28;20177;-67
2023/03/27 04:17:48;;;;;;;12.50;5.40;;;5.10;99.90;;;;;;5028410;28;20413;-68
2023/03/27 04:20:16;;;;;;;16.00;5.20;;;5.00;99.90;;;;;;5028507;28;20256;-70
2023/03/27 04:22:45;;;;;;;7.27;4.90;;;4.90;99.90;;;;;;5030313;28;20171;-68
2023/03/27 04:25:13;;;;;;;11.33;4.87;;;5.00;99.90;;;;;;5030456;28;20970;-69
2023/03/27 04:27:39;;;;;;;11.73;5.03;;;4.90;99.90;;;;;;5029933;28;20496;-69
2023/03/27 04:30:09;;;;;;;9.23;4.60;;;4.90;99.90;;;;;;5029504;28;20857;-68
2023/03/27 04:32:35;;;;;;;7.33;4.53;;;4.90;99.90;;;;;;5029576;28;20472;-67
2023/03/27 04:35:01;;;;;;;14.07;4.63;;;4.90;99.90;;;;;;5030148;28;20461;-69
2023/03/27 04:37:27;;;;;;;9.17;4.50;;;4.80;99.90;;;;;;5029789;28;20409;-68
2023/03/27 04:39:53;;;;;;;11.33;4.30;;;4.70;99.90;;;;;;5027707;28;20444;-69
2023/03/27 04:42:22;;;;;;;9.80;5.10;;;4.90;99.90;;;;;;5029474;28;20487;-68
2023/03/27 04:44:49;;;;;;;7.33;4.10;;;4.90;99.90;;;;;;5028341;28;20187;-68
2023/03/27 04:47:14;;;;;;;12.43;4.17;;;4.90;99.90;;;;;;5029833;28;20868;-69
2023/03/27 04:49:42;;;;;;;12.07;4.17;;;4.90;99.90;;;;;;5029714;28;20445;-68
2023/03/27 04:52:08;;;;;;;10.33;3.57;;;4.90;99.90;;;;;;5029061;28;20274;-68
2023/03/27 04:54:34;;;;;;;8.03;3.10;;;4.60;99.90;;;;;;5029899;28;20502;-69
2023/03/27 04:57:02;;;;;;;9.67;3.67;;;4.60;99.90;;;;;;5029219;28;20776;-68
2023/03/27 04:59:32;;;;;;;7.10;3.40;;;4.60;99.90;;;;;;5029237;28;20425;-67
2023/03/27 05:02:00;;;;;;;5.93;2.43;;;4.50;99.90;;;;;;5029461;28;20532;-67
2023/03/27 05:04:26;;;;;;;7.83;2.87;;;4.60;99.90;;;;;;5028340;28;20425;-68
2023/03/27 05:06:53;;;;;;;5.90;3.20;;;4.50;99.90;;;;;;5028521;28;20445;-68
2023/03/27 05:09:19;;;;;;;11.00;3.47;;;4.50;99.90;;;;;;5028516;28;20428;-67
2023/03/27 05:11:48;;;;;;;6.77;3.70;;;4.50;99.90;;;;;;5029912;28;20505;-68
2023/03/27 05:14:18;;;;;;;6.87;3.07;;;4.50;99.90;;;;;;5029374;28;20414;-68
2023/03/27 05:16:44;;;;;;;7.90;2.47;;;4.40;99.90;;;;;;5028256;28;20450;-68
2023/03/27 05:19:11;;;;;;;6.13;2.70;;;4.50;99.90;;;;;;5029272;28;20463;-67
2023/03/27 05:21:37;;;;;;;8.20;3.47;;;4.40;99.90;;;;;;5028003;28;20449;-68
2023/03/27 05:24:03;;;;;;;6.50;2.80;;;4.40;99.90;;;;;;5029270;28;20763;-68
2023/03/27 05:26:29;;;;;;;7.07;2.83;;;4.40;99.90;;;;;;5029370;28;20414;-68
2023/03/27 05:28:57;;;;;;;11.60;3.30;;;4.30;99.90;;;;;;5025782;28;20433;-68
2023/03/27 05:31:23;;;;;;;12.50;3.53;;;4.30;99.90;;;;;;5026537;28;20458;-67
2023/03/27 05:33:49;;;;;;;4.17;2.10;;;4.30;99.90;;;;;;5027035;28;20406;-67
2023/03/27 05:36:15;;;;;;;5.57;2.50;;;4.20;99.90;;;;;;5027020;28;20501;-70
2023/03/27 05:38:41;;;;;;;7.93;3.50;;;4.10;99.90;;;;;;5025741;28;20493;-69
2023/03/27 05:41:08;;;;;;;9.17;3.30;;;4.10;99.90;;;;;;5026405;28;20553;-68
2023/03/27 05:43:34;;;;;;;8.30;2.93;;;4.10;99.90;;;;;;5024388;28;20179;-68
2023/03/27 05:46:00;;;;;;;7.40;2.47;;;4.10;99.90;;;;;;5026301;28;20421;-70
2023/03/27 05:48:26;;;;;;;11.60;2.90;;;4.10;99.90;;;;;;5026141;28;20175;-68
2023/03/27 05:50:52;;;;;;;8.87;2.77;;;4.20;99.90;;;;;;5025783;28;20256;-67
2023/03/27 05:53:18;;;;;;;9.80;3.10;;;4.20;99.90;;;;;;5025998;28;20422;-68
2023/03/27 05:55:44;;;;;;;6.13;2.73;;;4.20;99.90;;;;;;5024071;28;20358;-68
2023/03/27 05:58:10;;;;;;;10.77;3.70;;;4.20;99.90;;;;;;5025710;28;20410;-69
2023/03/27 06:00:38;;;;;;;4.47;2.83;;;4.20;99.90;;;;;;5026010;28;20211;-70
2023/03/27 06:03:03;;;;;;;11.20;3.13;;;4.30;99.90;;;;;;5025831;28;20424;-67
2023/03/27 06:05:31;;;;;;;7.67;3.23;;;4.30;99.90;;;;;;5026078;28;20418;-69
2023/03/27 06:07:57;;;;;;;8.90;3.47;;;4.20;99.90;;;;;;5025999;28;20168;-70
2023/03/27 06:10:27;;;;;;;5.03;2.70;;;4.20;99.90;;;;;;5025719;28;20549;-67
2023/03/27 06:15:24;;;;;;;7.00;3.20;;;4.30;99.90;;;;;;5022930;28;20852;-69
2023/03/27 06:17:50;;;;;;;8.83;2.57;;;4.50;99.90;;;;;;5024429;28;20488;-69
2023/03/27 06:20:15;;;;;;;12.70;3.20;;;4.40;99.90;;;;;;5024429;28;20567;-69
2023/03/27 06:22:45;;;;;;;7.20;2.60;;;4.30;99.90;;;;;;5024564;28;20710;-70
2023/03/27 06:25:11;;;;;;;7.33;2.60;;;4.40;99.90;;;;;;5024630;28;20211;-70
2023/03/27 06:27:36;;;;;;;6.40;3.20;;;4.40;99.90;;;;;;5024435;28;20965;-69
2023/03/27 06:30:03;;;;;;;10.47;2.37;;;4.60;99.90;;;;;;5024461;28;20637;-72
2023/03/27 06:32:28;;;;;;;5.03;2.90;;;4.60;99.90;;;;;;5022636;28;20199;-73
2023/03/27 06:34:54;;;;;;;5.37;2.97;;;4.30;99.90;;;;;;5023572;28;21201;-70
2023/03/27 06:37:20;;;;;;;5.50;2.50;;;4.20;99.90;;;;;;5004660;28;20184;-72
2023/03/27 06:39:49;;;;;;;16.93;3.33;;;4.10;99.90;;;;;;5004027;28;20642;-71
2023/03/27 06:42:15;;;;;;;10.97;3.20;;;4.20;99.90;;;;;;5004505;28;20267;-70
2023/03/27 06:44:40;;;;;;;11.10;3.20;;;4.40;99.90;;;;;;5004131;28;20873;-72
2023/03/27 06:47:06;;;;;;;7.70;2.50;;;4.40;99.90;;;;;;5004350;28;20195;-70
2023/03/27 06:49:31;;;;;;;6.23;2.90;;;4.20;99.90;;;;;;5002952;28;20219;-70
2023/03/27 06:51:57;;;;;;;6.17;2.37;;;4.20;99.90;;;;;;5004012;28;20222;-72
2023/03/27 06:54:23;;;;;;;13.37;3.17;;;4.30;99.90;;;;;;5007697;28;20191;-72
2023/03/27 06:56:48;;;;;;;5.53;2.40;;;4.30;99.90;;;;;;5023892;28;20601;-71
2023/03/27 06:59:14;;;;;;;8.30;3.80;;;4.30;99.90;;;;;;5023795;28;20421;-72
2023/03/27 07:01:39;;;;;;;12.23;4.87;;;4.50;99.90;;;;;;5023634;28;20179;-71
2023/03/27 07:04:05;;;;;;;8.20;2.27;;;4.60;99.90;;;;;;5022117;28;20279;-71
2023/03/27 07:06:31;;;;;;;6.83;2.53;;;4.50;99.90;;;;;;5023734;28;20453;-70
2023/03/27 07:08:57;;;;;;;9.13;2.97;;;4.20;99.90;;;;;;5019504;28;20427;-70
2023/03/27 07:11:22;;;;;;;6.10;2.97;;;4.40;99.90;;;;;;5003990;28;20208;-71
2023/03/27 07:13:48;;;;;;;8.33;2.83;;;4.40;99.90;;;;;;5019656;28;20229;-72
2023/03/27 07:16:13;;;;;;;10.50;3.00;;;4.50;99.90;;;;;;5024040;28;20175;-72
2023/03/27 07:18:40;;;;;;;6.53;2.77;;;4.60;99.90;;;;;;5005997;28;20183;-71
2023/03/27 07:21:07;;;;;;;7.07;3.50;;;4.50;99.90;;;;;;5004119;28;20176;-72
2023/03/27 07:23:32;;;;;;;5.50;2.23;;;4.80;99.90;;;;;;5002338;28;20829;-70
2023/03/27 07:26:00;;;;;;;9.70;2.43;;;4.60;99.90;;;;;;5003802;28;20427;-72
2023/03/27 07:28:25;;;;;;;4.23;2.30;;;4.50;99.90;;;;;;5003504;28;20270;-71
2023/03/27 07:30:51;;;;;;;5.23;2.27;;;4.50;99.90;;;;;;5003895;28;20570;-72
2023/03/27 07:33:17;;;;;;;7.20;2.40;;;4.70;99.90;;;;;;5003372;28;20195;-72
2023/03/27 07:35:44;;;;;;;6.00;2.33;;;4.80;99.90;;;;;;5003282;28;20574;-72
2023/03/27 07:38:10;;;;;;;8.20;2.90;;;4.80;99.90;;;;;;5003569;28;20905;-71
2023/03/27 07:40:37;;;;;;;8.97;2.83;;;4.80;99.90;;;;;;4999099;28;20506;-71
2023/03/27 07:43:06;;;;;;;8.60;2.43;;;4.80;99.90;;;;;;4996458;28;20419;-70
2023/03/27 07:45:32;;;;;;;6.20;2.40;;;5.10;99.90;;;;;;4996811;28;20411;-70
2023/03/27 07:48:10;;;;;;;8.10;2.30;;;5.20;99.90;;;;;;4996980;28;20407;-70
2023/03/27 07:50:36;;;;;;;6.87;2.50;;;5.20;99.90;;;;;;4997684;28;20465;-70
2023/03/27 07:53:05;;;;;;;5.83;2.33;;;5.00;99.90;;;;;;4996763;28;20410;-71
2023/03/27 07:55:30;;;;;;;5.03;2.30;;;4.80;99.90;;;;;;4997579;28;20413;-70
2023/03/27 07:57:56;;;;;;;5.60;2.50;;;4.90;99.90;;;;;;4996795;28;20419;-70
2023/03/27 08:00:22;;;;;;;7.30;2.47;;;5.00;99.90;;;;;;4997902;28;20205;-71
2023/03/27 08:02:51;;;;;;;5.20;2.43;;;4.90;99.90;;;;;;4997177;28;20722;-71
2023/03/27 08:05:17;;;;;;;7.17;2.70;;;5.10;99.90;;;;;;4997879;28;20184;-70
2023/03/27 08:07:46;;;;;;;6.97;2.87;;;5.20;99.90;;;;;;4998659;28;20415;-71
2023/03/27 08:10:13;;;;;;;9.07;2.77;;;5.20;99.90;;;;;;4997392;28;20840;-71
2023/03/27 08:12:38;;;;;;;3.93;2.00;;;5.10;99.90;;;;;;4997009;28;20566;-71
2023/03/27 08:15:05;;;;;;;6.80;2.57;;;5.20;99.90;;;;;;4997991;28;20977;-71
2023/03/27 08:17:32;;;;;;;5.83;2.70;;;5.30;99.90;;;;;;4997680;28;20176;-73
2023/03/27 08:20:00;;;;;;;8.10;2.80;;;5.20;99.90;;;;;;4996074;28;20411;-71
2023/03/27 08:22:27;;;;;;;4.70;2.13;;;5.10;99.90;;;;;;4997778;28;20447;-70
2023/03/27 08:24:53;;;;;;;5.10;1.90;;;5.30;99.90;;;;;;4996972;28;20449;-70
2023/03/27 08:27:18;;;;;;;6.33;2.40;;;5.40;99.90;;;;;;4997557;28;20533;-70
2023/03/27 08:29:44;;;;;;;5.47;2.50;;;5.10;99.90;;;;;;5010645;28;20290;-74
2023/03/27 08:32:10;;;;;;;6.33;1.90;;;5.10;99.90;;;;;;4996835;28;20283;-70
2023/03/27 08:34:36;;;;;;;9.73;2.43;;;5.00;99.90;;;;;;4998349;28;20278;-71
2023/03/27 08:37:03;;;;;;;6.47;2.80;;;5.10;99.90;;;;;;4996781;28;20890;-71
2023/03/27 08:39:29;;;;;;;5.40;2.33;;;5.20;99.90;;;;;;4997552;28;20415;-70
2023/03/27 08:41:58;;;;;;;5.97;2.40;;;5.20;99.90;;;;;;4996250;28;20760;-71
2023/03/27 08:44:26;;;;;;;8.23;2.40;;;5.50;99.90;;;;;;4997029;28;20489;-71
2023/03/27 08:47:01;;;;;;;7.27;2.90;;;5.40;99.90;;;;;;4997049;28;20418;-70
2023/03/27 08:49:31;;;;;;;6.67;2.30;;;5.40;99.90;;;;;;4995308;28;20426;-70
2023/03/27 08:52:14;;;;;;;5.37;2.17;;;5.50;99.90;;;;;;4997859;28;20469;-71
2023/03/27 08:54:43;;;;;;;9.93;2.60;;;5.60;99.90;;;;;;4994849;28;20435;-71
2023/03/27 08:57:22;;;;;;;5.50;2.40;;;5.60;99.90;;;;;;4996500;28;20483;-69
2023/03/27 08:59:57;;;;;;;7.17;2.20;;;5.40;99.90;;;;;;4996732;28;20442;-71
2023/03/27 09:02:44;;;;;;;7.60;2.93;;;5.40;99.90;;;;;;5001992;28;20420;-71
2023/03/27 09:05:20;;;;;;;4.90;2.20;;;5.50;99.90;;;;;;5005545;28;20442;-72
2023/03/27 09:08:10;;;;;;;5.10;2.30;;;5.70;99.90;;;;;;5005011;28;20756;-72
2023/03/27 09:10:49;;;;;;;2.97;2.17;;;5.80;99.90;;;;;;5003639;28;20873;-72
2023/03/27 09:13:41;;;;;;;5.40;2.30;;;5.70;99.90;;;;;;5000989;28;20461;-69
2023/03/27 09:16:29;;;;;;;5.23;1.87;;;5.80;99.90;;;;;;5000683;28;20438;-70
2023/03/27 09:18:59;;;;;;;5.37;2.07;;;5.70;99.90;;;;;;5000032;28;20407;-70
2023/03/27 09:21:40;;;;;;;2.97;1.90;;;5.90;99.90;;;;;;5000545;28;20456;-70
2023/03/27 09:24:14;;;;;;;8.93;2.43;;;5.90;99.90;;;;;;5000824;28;21158;-71
2023/03/27 09:26:40;;;;;;;4.40;1.80;;;5.80;99.90;;;;;;4999856;28;20457;-69
2023/03/27 09:29:16;;;;;;;3.63;1.33;;;6.00;99.90;;;;;;5000652;28;20477;-70
2023/03/27 09:31:55;;;;;;;5.70;2.13;;;5.90;99.90;;;;;;5000095;28;20508;-70
2023/03/27 09:34:26;;;;;;;5.53;1.93;;;6.00;99.90;;;;;;5000246;28;20430;-69
2023/03/27 09:36:53;;;;;;;4.80;1.90;;;6.40;99.90;;;;;;4998369;28;20426;-72
2023/03/27 09:39:22;;;;;;;6.80;2.43;;;6.60;99.90;;;;;;4999786;28;20451;-72
2023/03/27 09:42:19;;;;;;;4.20;2.30;;;6.50;99.90;;;;;;4999306;28;20469;-71
2023/03/27 09:44:53;;;;;;;7.90;2.23;;;6.40;99.90;;;;;;5002684;28;20589;-70
2023/03/27 09:47:25;;;;;;;4.67;1.70;;;6.50;99.90;;;;;;4999362;28;20419;-68
2023/03/27 09:49:59;;;;;;;3.90;2.07;;;6.60;99.90;;;;;;4999125;28;20518;-70
2023/03/27 09:52:33;;;;;;;7.47;2.10;;;6.40;99.90;;;;;;4998920;28;20448;-72
2023/03/27 09:54:59;;;;;;;3.80;1.80;;;6.40;99.90;;;;;;4998982;28;20798;-69
2023/03/27 09:57:34;;;;;;;5.13;2.20;;;6.60;99.90;;;;;;4999800;28;20407;-71
2023/03/27 10:00:14;;;;;;;6.70;2.17;;;6.90;99.90;;;;;;5000699;28;20405;-71
2023/03/27 10:02:40;;;;;;;7.20;2.03;;;6.90;99.90;;;;;;5002913;28;20418;-73
2023/03/27 10:05:16;;;;;;;5.60;1.87;;;6.90;99.90;;;;;;4999661;28;20471;-71
2023/03/27 10:07:42;;;;;;;6.03;1.80;;;6.70;99.90;;;;;;4999542;28;20422;-68
2023/03/27 10:10:14;;;;;;;4.13;1.73;;;6.60;99.30;;;;;;4998339;28;20860;-69
2023/03/27 10:12:41;;;;;;;3.23;1.93;;;6.60;98.20;;;;;;4998942;28;20541;-71
2023/03/27 10:15:25;;;;;;;6.10;1.77;;;6.40;98.70;;;;;;4996296;28;20647;-71
2023/03/27 10:17:51;;;;;;;4.03;1.53;;;6.70;99.60;;;;;;4999887;28;20427;-72
2023/03/27 10:20:20;;;;;;;3.30;2.00;;;7.10;99.70;;;;;;5002765;28;21219;-70
2023/03/27 10:22:58;;;;;;;5.93;1.57;;;7.10;98.70;;;;;;5004846;28;20921;-69
2023/03/27 10:25:38;;;;;;;3.40;1.80;;;7.30;98.20;;;;;;5017342;28;20424;-70
2023/03/27 10:28:27;;;;;;;3.80;1.30;;;6.90;98.50;;;;;;5014283;28;20918;-70
2023/03/27 10:31:02;;;;;;;2.90;1.53;;;7.00;98.20;;;;;;5002754;28;20930;-71
2023/03/27 10:33:35;;;;;;;4.40;1.73;;;7.00;97.00;;;;;;5003132;28;20432;-71
2023/03/27 10:36:02;;;;;;;5.00;2.13;;;6.90;97.10;;;;;;5004816;28;20778;-71
2023/03/27 10:38:30;;;;;;;3.27;1.80;;;7.00;97.20;;;;;;5004328;28;20419;-70
2023/03/27 10:40:56;;;;;;;8.10;2.10;;;7.00;97.40;;;;;;5008477;28;20919;-71
2023/03/27 10:43:32;;;;;;;3.80;1.70;;;7.50;97.50;;;;;;5004024;28;20557;-71
2023/03/27 10:46:05;;;;;;;4.23;2.30;;;7.90;97.10;;;;;;5004013;28;20582;-70
2023/03/27 10:48:59;;;;;;;6.23;2.07;;;8.00;96.30;;;;;;5004104;28;20494;-72
2023/03/27 10:51:49;;;;;;;4.50;1.63;;;7.90;96.30;;;;;;5003226;28;20463;-71
2023/03/27 10:54:30;;;;;;;4.53;1.90;;;7.70;93.50;;;;;;4996080;28;20455;-71
2023/03/27 10:57:04;;;;;;;3.53;1.97;;;7.70;93.90;;;;;;5003755;28;20443;-71
2023/03/27 10:59:55;;;;;;;5.03;1.93;;;8.40;93.60;;;;;;5002697;28;20417;-69
2023/03/27 11:02:40;;;;;;;5.00;1.73;;;8.90;94.00;;;;;;5004434;28;20860;-71
2023/03/27 11:05:36;;;;;;;4.00;2.00;;;9.00;94.00;;;;;;5003963;28;20525;-71
2023/03/27 11:08:07;;;;;;;10.57;2.87;;;9.20;94.40;;;;;;4995350;28;20997;-71
2023/03/27 11:10:40;;;;;;;7.57;2.87;;;9.00;94.50;;;;;;5000285;28;20410;-71
2023/03/27 11:13:13;;;;;;;3.07;1.80;;;9.00;95.10;;;;;;4998066;28;20965;-71
2023/03/27 11:15:44;;;;;;;4.00;1.90;;;9.90;93.60;;;;;;4998191;28;20402;-69
2023/03/27 11:18:13;;;;;;;7.13;1.80;;;10.70;88.80;;;;;;4998335;28;20462;-69
2023/03/27 11:20:49;;;;;;;4.43;2.70;;;11.40;83.60;;;;;;4998808;28;20406;-69
2023/03/27 11:23:29;;;;;;;3.43;2.00;;;11.40;81.60;;;;;;4997733;28;20537;-71
2023/03/27 11:25:58;;;;;;;3.80;1.80;;;11.30;83.70;;;;;;4996059;28;20485;-70
2023/03/27 11:28:42;;;;;;;7.10;1.40;;;9.90;80.80;;;;;;4997881;28;20590;-69
2023/03/27 11:31:17;;;;;;;6.40;1.43;;;8.70;83.40;;;;;;4996981;28;20535;-71
2023/03/27 11:34:04;;;;;;;2.90;1.73;;;9.50;86.80;;;;;;4998212;28;20454;-72
2023/03/27 11:36:38;;;;;;;4.60;1.67;;;11.20;80.60;;;;;;4997975;28;20402;-71
2023/03/27 11:39:10;;;;;;;3.13;1.87;;;10.90;79.00;;;;;;5002978;28;20538;-70
2023/03/27 11:41:36;;;;;;;5.30;2.30;;;9.80;84.20;;;;;;5003883;28;20789;-70
2023/03/27 11:44:02;;;;;;;7.30;2.20;;;8.80;88.90;;;;;;5018431;28;20438;-73
2023/03/27 11:47:00;;;;;;;4.90;2.10;;;8.30;91.40;;;;;;5021776;28;20186;-72
2023/03/27 11:50:07;;;;;;;4.00;1.80;;;8.20;91.70;;;;;;5021210;28;20417;-71
2023/03/27 11:52:51;;;;;;;4.53;1.90;;;8.20;93.10;;;;;;4966902;28;20517;-70
2023/03/27 11:55:32;;;;;;;3.63;2.10;;;8.10;93.10;;;;;;4955897;28;20412;-71
2023/03/27 11:58:31;;;;;;;4.77;2.07;;;9.80;91.00;;;;;;4984618;28;20992;-70
2023/03/27 12:01:16;;;;;;;4.53;1.97;;;12.10;82.70;;;;;;4997521;28;20439;-72
2023/03/27 12:03:51;;;;;;;5.20;1.83;;;13.50;77.40;;;;;;4997672;28;20777;-70
2023/03/27 12:06:49;;;;;;;6.87;2.30;;;14.10;75.00;;;;;;4996859;28;20493;-70
2023/03/27 12:09:42;;;;;;;3.20;1.43;;;15.00;69.30;;;;;;4996342;28;20458;-72
2023/03/27 12:12:44;;;;;;;3.30;1.80;;;14.00;69.50;;;;;;4997675;28;20488;-70
2023/03/27 12:15:09;;;;;;;2.80;1.80;;;11.90;72.70;;;;;;4997030;28;20464;-70
2023/03/27 12:17:56;;;;;;;4.70;1.40;;;12.90;73.60;;;;;;4997490;28;20808;-73
2023/03/27 12:20:53;;;;;;;5.17;1.57;;;14.00;67.50;;;;;;4997673;28;20179;-72
2023/03/27 12:23:55;;;;;;;3.90;1.93;;;14.60;63.50;;;;;;4996769;28;20422;-69
2023/03/27 12:26:36;;;;;;;3.60;1.57;;;14.10;60.60;;;;;;4996955;28;20407;-69
2023/03/27 12:29:30;;;;;;;3.57;1.40;;;13.10;64.60;;;;;;4996811;28;20506;-72
2023/03/27 12:32:08;;;;;;;4.47;1.90;;;12.00;67.00;;;;;;4997424;28;20487;-73
2023/03/27 12:34:49;;;;;;;3.87;1.30;;;11.30;68.70;;;;;;5029778;22;20491;-74
2023/03/27 12:37:18;;;;;;;2.27;1.30;;;12.20;69.30;;;;;;5004354;28;20437;-71
2023/03/27 12:39:49;;;;;;;5.87;1.70;;;13.00;66.10;;;;;;5006230;28;20469;-69
2023/03/27 12:42:48;;;;;;;2.03;1.40;;;13.10;65.70;;;;;;5008438;28;20444;-69
2023/03/27 12:45:16;;;;;;;2.80;1.47;;;12.60;65.90;;;;;;4987499;28;20425;-70
2023/03/27 12:48:08;;;;;;;5.13;1.60;;;12.20;68.50;;;;;;4998719;28;20408;-70
2023/03/27 12:50:55;;;;;;;4.43;1.60;;;12.70;70.00;;;;;;4981259;28;20465;-73
2023/03/27 12:53:29;;;;;;;5.23;2.30;;;13.30;67.70;;;;;;4988931;28;20484;-71
2023/03/27 12:56:23;;;;;;;5.57;2.20;;;13.90;66.90;;;;;;4985453;28;20428;-70
2023/03/27 12:58:51;;;;;;;6.53;3.47;;;13.80;66.60;;;;;;4990420;28;20863;-71
2023/03/27 13:01:40;;;;;;;5.47;2.60;;;14.20;68.20;;;;;;4990189;28;20420;-72
2023/03/27 13:04:25;;;;;;;2.20;1.20;;;14.10;67.30;;;;;;4999144;28;20422;-70
2023/03/27 13:07:05;;;;;;;3.20;1.23;;;14.80;65.70;;;;;;5002901;28;20584;-71
2023/03/27 13:10:05;;;;;;;5.87;2.20;;;14.90;64.10;;;;;;4999743;28;20955;-74
2023/03/27 13:13:03;;;;;;;3.57;1.43;;;13.30;66.20;;;;;;4999689;28;20455;-71
2023/03/27 13:16:06;;;;;;;6.47;1.47;;;12.80;67.50;;;;;;5000844;28;20410;-70
2023/03/27 13:19:08;;;;;;;4.70;1.60;;;12.00;70.30;;;;;;4991721;28;20450;-69
2023/03/27 13:22:06;;;;;;;6.50;1.90;;;11.00;72.20;;;;;;4994655;28;20418;-71
2023/03/27 13:24:57;;;;;;;3.53;1.30;;;10.30;76.30;;;;;;4964959;28;20453;-70
2023/03/27 13:27:52;;;;;;;4.33;1.43;;;10.10;77.40;;;;;;4988453;28;20441;-71